createdAt,value
2016-09-19T00:00:24.696Z,95.79
2016-09-19T00:01:24.783Z,96.27
2016-09-19T00:02:24.781Z,96.08
2016-09-19T00:03:24.783Z,95.89
2016-09-19T00:04:24.787Z,96.18
2016-09-19T00:05:24.799Z,96.37
2016-09-19T00:06:24.787Z,96.37
2016-09-19T00:07:24.723Z,96.84
2016-09-19T00:08:24.740Z,96.47
2016-09-19T00:09:24.764Z,96.75
2016-09-19T00:10:24.808Z,96.84
2016-09-19T00:11:24.731Z,96.84
2016-09-19T00:12:24.830Z,97.04
2016-09-19T00:13:24.818Z,97.04
2016-09-19T00:14:24.823Z,97.33
2016-09-19T00:15:24.828Z,97.23
2016-09-19T00:16:24.828Z,97.23
2016-09-19T00:17:24.744Z,97.23
2016-09-19T00:18:24.798Z,97.13
2016-09-19T00:19:24.837Z,97.13
2016-09-19T00:20:24.769Z,98.09
2016-09-19T00:21:24.804Z,98
2016-09-19T00:22:24.840Z,98
2016-09-19T00:23:24.770Z,97.9
2016-09-19T00:24:24.772Z,97.9
2016-09-19T00:25:24.852Z,97.71
2016-09-19T00:26:24.860Z,97.8
2016-09-19T00:27:24.817Z,97.61
2016-09-19T00:28:24.818Z,97.9
2016-09-19T00:29:24.821Z,98.19
2016-09-19T00:30:24.855Z,97.9
2016-09-19T00:31:24.868Z,98.47
2016-09-19T00:32:24.868Z,98.28
2016-09-19T00:33:24.834Z,98.57
2016-09-19T00:34:24.884Z,98.47
2016-09-19T00:35:24.807Z,98.28
2016-09-19T00:36:24.876Z,99.05
2016-09-19T00:37:24.837Z,98.47
2016-09-19T00:38:24.897Z,98.66
2016-09-19T00:39:24.881Z,98.76
2016-09-19T00:40:24.900Z,98.86
2016-09-19T00:41:25.007Z,98.86
2016-09-19T00:42:24.820Z,98.47
2016-09-19T00:43:24.907Z,98.66
2016-09-19T00:44:24.829Z,98.66
2016-09-19T00:45:24.907Z,98.76
2016-09-19T00:46:24.837Z,98.66
2016-09-19T00:47:24.845Z,98.57
2016-09-19T00:48:24.918Z,99.15
2016-09-19T00:49:24.838Z,98.86
2016-09-19T00:50:24.911Z,98.95
2016-09-19T00:51:24.919Z,99.05
2016-09-19T00:52:24.925Z,99.62
2016-09-19T00:53:24.851Z,99.24
2016-09-19T00:54:24.900Z,99.43
2016-09-19T00:55:24.861Z,99.52
2016-09-19T00:56:24.857Z,99.91
2016-09-19T00:57:24.933Z,99.99
2016-09-19T00:58:24.951Z,99.99
2016-09-19T00:59:24.903Z,99.91
2016-09-19T01:00:24.872Z,99.99
2016-09-19T01:01:25.033Z,99.99
2016-09-19T01:02:24.886Z,99.99
2016-09-19T01:03:24.964Z,99.99
2016-09-19T01:04:24.891Z,99.99
2016-09-19T01:05:24.924Z,99.99
2016-09-19T01:06:24.969Z,99.99
2016-09-19T01:07:24.964Z,99.99
2016-09-19T01:08:24.893Z,99.99
2016-09-19T01:09:24.899Z,99.99
2016-09-19T01:10:24.935Z,99.99
2016-09-19T01:11:24.976Z,99.99
2016-09-19T01:12:24.940Z,99.99
2016-09-19T01:13:24.918Z,99.99
2016-09-19T01:14:24.996Z,99.99
2016-09-19T01:15:24.957Z,99.99
2016-09-19T01:16:25.000Z,99.99
2016-09-19T01:17:24.916Z,99.99
2016-09-19T01:18:24.925Z,99.99
2016-09-19T01:19:25.011Z,99.99
2016-09-19T01:20:24.935Z,99.99
2016-09-19T01:21:24.969Z,99.99
2016-09-19T01:22:25.007Z,99.99
2016-09-19T01:23:25.014Z,99.99
2016-09-19T01:24:25.024Z,99.99
2016-09-19T01:25:24.944Z,99.99
2016-09-19T01:26:25.022Z,99.99
2016-09-19T01:27:25.026Z,99.99
2016-09-19T01:28:25.044Z,99.99
2016-09-19T01:29:24.966Z,99.99
2016-09-19T01:30:24.957Z,99.99
2016-09-19T01:31:25.032Z,99.99
2016-09-19T01:32:24.995Z,99.99
2016-09-19T01:33:24.966Z,99.99
2016-09-19T01:34:25.001Z,99.99
2016-09-19T01:35:25.014Z,99.99
2016-09-19T01:36:25.060Z,99.99
2016-09-19T01:37:25.063Z,99.99
2016-09-19T01:38:25.081Z,99.99
2016-09-19T01:39:25.068Z,99.99
2016-09-19T01:40:25.031Z,99.99
2016-09-19T01:41:25.072Z,99.99
2016-09-19T01:42:24.994Z,99.99
2016-09-19T01:43:24.995Z,99.99
2016-09-19T01:44:24.994Z,99.99
2016-09-19T01:45:25.077Z,99.99
2016-09-19T01:46:25.012Z,99.99
2016-09-19T01:47:25.091Z,99.99
2016-09-19T01:48:25.098Z,99.99
2016-09-19T01:49:25.125Z,99.99
2016-09-19T01:50:25.092Z,99.99
2016-09-19T01:51:25.054Z,99.99
2016-09-19T01:52:25.060Z,99.99
2016-09-19T01:53:25.100Z,99.99
2016-09-19T01:54:25.021Z,99.99
2016-09-19T01:55:25.028Z,99.99
2016-09-19T01:56:25.073Z,99.99
2016-09-19T01:57:25.118Z,99.99
2016-09-19T01:58:25.064Z,99.99
2016-09-19T01:59:25.109Z,99.99
2016-09-19T02:00:25.124Z,99.99
2016-09-19T02:01:25.044Z,99.99
2016-09-19T02:02:25.095Z,99.99
2016-09-19T02:03:25.129Z,99.99
2016-09-19T02:04:25.096Z,99.99
2016-09-19T02:05:25.056Z,99.99
2016-09-19T02:06:25.135Z,99.99
2016-09-19T02:07:25.072Z,99.99
2016-09-19T02:08:25.162Z,99.99
2016-09-19T02:09:25.113Z,99.99
2016-09-19T02:10:25.106Z,99.99
2016-09-19T02:11:25.142Z,99.99
2016-09-19T02:12:25.144Z,99.99
2016-09-19T02:13:25.080Z,99.99
2016-09-19T02:14:25.148Z,99.99
2016-09-19T02:15:25.122Z,99.99
2016-09-19T02:16:25.088Z,99.99
2016-09-19T02:17:25.136Z,99.99
2016-09-19T02:18:25.166Z,99.99
2016-09-19T02:19:25.095Z,99.99
2016-09-19T02:20:25.191Z,99.99
2016-09-19T02:21:25.173Z,99.99
2016-09-19T02:22:25.104Z,99.99
2016-09-19T02:23:25.182Z,99.99
2016-09-19T02:24:25.160Z,99.99
2016-09-19T02:25:25.157Z,99.99
2016-09-19T02:26:25.212Z,99.99
2016-09-19T02:27:25.202Z,99.99
2016-09-19T02:28:25.160Z,99.99
2016-09-19T02:29:25.220Z,99.99
2016-09-19T02:30:25.141Z,99.99
2016-09-19T02:31:25.223Z,99.99
2016-09-19T02:32:25.138Z,99.99
2016-09-19T02:33:25.184Z,99.99
2016-09-19T02:34:25.144Z,99.99
2016-09-19T02:35:25.214Z,99.99
2016-09-19T02:36:25.197Z,99.99
2016-09-19T02:37:25.226Z,99.99
2016-09-19T02:38:25.242Z,99.99
2016-09-19T02:39:25.168Z,99.99
2016-09-19T02:40:25.196Z,99.99
2016-09-19T02:41:25.158Z,99.99
2016-09-19T02:42:25.166Z,99.99
2016-09-19T02:43:25.162Z,99.99
2016-09-19T02:44:25.209Z,99.99
2016-09-19T02:45:25.263Z,99.99
2016-09-19T02:46:25.172Z,99.99
2016-09-19T02:47:25.210Z,99.99
2016-09-19T02:48:25.187Z,99.99
2016-09-19T02:49:25.257Z,99.99
2016-09-19T02:50:25.258Z,99.99
2016-09-19T02:51:25.189Z,99.99
2016-09-19T02:52:25.196Z,99.99
2016-09-19T02:53:25.299Z,99.99
2016-09-19T02:54:25.286Z,99.99
2016-09-19T02:55:25.227Z,99.99
2016-09-19T02:56:25.294Z,99.99
2016-09-19T02:57:25.264Z,99.99
2016-09-19T02:58:25.250Z,99.99
2016-09-19T02:59:25.281Z,99.99
2016-09-19T03:00:25.284Z,99.99
2016-09-19T03:01:25.300Z,99.99
2016-09-19T03:02:25.441Z,99.99
2016-09-19T03:03:25.239Z,99.99
2016-09-19T03:04:25.231Z,99.99
2016-09-19T03:05:25.276Z,99.99
2016-09-19T03:06:25.231Z,99.99
2016-09-19T03:07:25.272Z,99.99
2016-09-19T03:08:25.330Z,99.99
2016-09-19T03:09:25.235Z,99.99
2016-09-19T03:10:25.247Z,99.99
2016-09-19T03:11:25.326Z,99.99
2016-09-19T03:12:25.325Z,99.99
2016-09-19T03:13:25.324Z,99.99
2016-09-19T03:14:25.336Z,99.99
2016-09-19T03:15:25.342Z,99.99
2016-09-19T03:16:25.265Z,99.99
2016-09-19T03:17:25.335Z,99.99
2016-09-19T03:18:25.300Z,99.99
2016-09-19T03:19:25.299Z,99.99
2016-09-19T03:20:25.339Z,99.99
2016-09-19T03:21:25.346Z,99.99
2016-09-19T03:22:25.353Z,99.99
2016-09-19T03:23:25.280Z,99.99
2016-09-19T03:24:25.361Z,99.99
2016-09-19T03:25:25.364Z,99.99
2016-09-19T03:26:25.381Z,99.99
2016-09-19T03:27:25.368Z,99.99
2016-09-19T03:28:25.324Z,99.99
2016-09-19T03:29:25.385Z,99.99
2016-09-19T03:30:25.364Z,99.99
2016-09-19T03:31:25.387Z,99.99
2016-09-19T03:32:25.302Z,99.99
2016-09-19T03:33:25.362Z,99.99
2016-09-19T03:34:25.350Z,99.99
2016-09-19T03:35:25.359Z,99.99
2016-09-19T03:36:25.323Z,99.99
2016-09-19T03:37:25.355Z,99.99
2016-09-19T03:38:25.392Z,99.99
2016-09-19T03:39:25.404Z,99.99
2016-09-19T03:40:25.323Z,99.99
2016-09-19T03:41:25.414Z,99.99
2016-09-19T03:42:25.365Z,99.99
2016-09-19T03:43:25.418Z,99.99
2016-09-19T03:44:25.382Z,99.99
2016-09-19T03:45:25.378Z,99.99
2016-09-19T03:46:25.424Z,99.99
2016-09-19T03:47:25.418Z,99.99
2016-09-19T03:48:25.345Z,99.99
2016-09-19T03:49:25.432Z,99.99
2016-09-19T03:50:25.442Z,99.99
2016-09-19T03:51:25.407Z,99.99
2016-09-19T03:52:25.359Z,99.99
2016-09-19T03:53:25.359Z,99.99
2016-09-19T03:54:25.439Z,99.99
2016-09-19T03:55:25.441Z,99.99
2016-09-19T03:56:25.414Z,99.99
2016-09-19T03:57:25.412Z,99.99
2016-09-19T03:58:25.419Z,99.99
2016-09-19T03:59:25.404Z,99.99
2016-09-19T04:00:25.451Z,99.99
2016-09-19T04:01:25.383Z,99.99
2016-09-19T04:02:25.508Z,99.99
2016-09-19T04:03:25.461Z,99.99
2016-09-19T04:04:25.444Z,99.99
2016-09-19T04:05:25.409Z,99.99
2016-09-19T04:06:25.480Z,99.99
2016-09-19T04:07:25.488Z,99.99
2016-09-19T04:08:25.493Z,99.99
2016-09-19T04:09:25.433Z,99.99
2016-09-19T04:10:25.497Z,99.99
2016-09-19T04:11:25.488Z,99.99
2016-09-19T04:12:25.508Z,99.99
2016-09-19T04:13:25.493Z,99.99
2016-09-19T04:14:25.507Z,99.99
2016-09-19T04:15:25.474Z,99.99
2016-09-19T04:16:25.464Z,99.99
2016-09-19T04:17:25.512Z,99.99
2016-09-19T04:18:25.513Z,99.99
2016-09-19T04:19:25.591Z,99.99
2016-09-19T04:20:25.445Z,99.99
2016-09-19T04:21:25.527Z,99.99
2016-09-19T04:22:25.444Z,99.99
2016-09-19T04:23:25.473Z,99.99
2016-09-19T04:24:25.529Z,99.99
2016-09-19T04:25:25.524Z,99.99
2016-09-19T04:26:25.467Z,99.99
2016-09-19T04:27:25.474Z,99.99
2016-09-19T04:28:25.538Z,99.99
2016-09-19T04:29:25.546Z,99.99
2016-09-19T04:30:25.581Z,99.99
2016-09-19T04:31:25.477Z,99.99
2016-09-19T04:32:25.555Z,99.99
2016-09-19T04:33:25.525Z,99.99
2016-09-19T04:34:25.514Z,99.99
2016-09-19T04:35:25.570Z,99.99
2016-09-19T04:36:25.563Z,99.99
2016-09-19T04:37:25.529Z,99.99
2016-09-19T04:38:25.583Z,99.99
2016-09-19T04:39:25.488Z,99.99
2016-09-19T04:40:25.576Z,99.99
2016-09-19T04:41:25.583Z,99.99
2016-09-19T04:42:25.576Z,99.99
2016-09-19T04:43:25.515Z,99.99
2016-09-19T04:44:25.514Z,99.99
2016-09-19T04:45:25.553Z,99.99
2016-09-19T04:46:25.604Z,99.99
2016-09-19T04:47:25.584Z,99.99
2016-09-19T04:48:25.599Z,99.99
2016-09-19T04:49:25.518Z,99.99
2016-09-19T04:50:25.600Z,99.99
2016-09-19T04:51:25.527Z,99.99
2016-09-19T04:52:25.611Z,99.99
2016-09-19T04:53:25.609Z,99.99
2016-09-19T04:54:25.611Z,99.99
2016-09-19T04:55:25.617Z,99.99
2016-09-19T04:56:25.541Z,99.99
2016-09-19T04:57:25.581Z,99.99
2016-09-19T04:58:25.579Z,99.99
2016-09-19T04:59:25.628Z,99.99
2016-09-19T05:00:25.637Z,99.99
2016-09-19T05:01:25.571Z,99.99
2016-09-19T05:02:25.564Z,99.99
2016-09-19T05:03:25.631Z,99.99
2016-09-19T05:04:25.653Z,99.99
2016-09-19T05:05:25.594Z,99.99
2016-09-19T05:06:25.568Z,99.99
2016-09-19T05:07:25.617Z,99.99
2016-09-19T05:08:25.653Z,99.99
2016-09-19T05:09:25.586Z,99.99
2016-09-19T05:10:25.620Z,99.99
2016-09-19T05:11:25.660Z,99.99
2016-09-19T05:12:25.592Z,99.99
2016-09-19T05:13:25.671Z,99.99
2016-09-19T05:14:25.673Z,99.99
2016-09-19T05:15:25.673Z,99.99
2016-09-19T05:16:25.646Z,99.99
2016-09-19T05:17:25.676Z,99.99
2016-09-19T05:18:25.642Z,99.99
2016-09-19T05:19:25.615Z,99.99
2016-09-19T05:20:25.645Z,99.99
2016-09-19T05:21:25.663Z,99.99
2016-09-19T05:22:25.621Z,99.99
2016-09-19T05:23:25.695Z,99.99
2016-09-19T05:24:25.698Z,99.99
2016-09-19T05:25:25.702Z,99.99
2016-09-19T05:26:25.623Z,99.99
2016-09-19T05:27:25.629Z,99.99
2016-09-19T05:28:25.642Z,99.99
2016-09-19T05:29:25.713Z,99.99
2016-09-19T05:30:25.718Z,99.99
2016-09-19T05:31:25.714Z,99.99
2016-09-19T05:32:25.638Z,99.99
2016-09-19T05:33:25.693Z,99.99
2016-09-19T05:34:25.740Z,99.99
2016-09-19T05:35:25.688Z,99.99
2016-09-19T05:36:25.742Z,99.99
2016-09-19T05:37:25.696Z,99.99
2016-09-19T05:38:25.694Z,99.99
2016-09-19T05:39:25.745Z,99.99
2016-09-19T05:40:25.736Z,99.99
2016-09-19T05:41:25.713Z,99.99
2016-09-19T05:42:25.715Z,99.99
2016-09-19T05:43:25.674Z,99.99
2016-09-19T05:44:25.751Z,99.99
2016-09-19T05:45:25.723Z,99.99
2016-09-19T05:46:25.695Z,99.99
2016-09-19T05:47:25.774Z,99.99
2016-09-19T05:48:25.687Z,99.99
2016-09-19T05:49:25.693Z,99.99
2016-09-19T05:50:25.725Z,99.99
2016-09-19T05:51:25.730Z,99.99
2016-09-19T05:52:25.772Z,99.99
2016-09-19T05:53:25.790Z,99.99
2016-09-19T05:54:25.791Z,99.99
2016-09-19T05:55:25.782Z,99.99
2016-09-19T05:56:25.716Z,99.99
2016-09-19T05:57:25.787Z,99.99
2016-09-19T05:58:25.755Z,99.99
2016-09-19T05:59:25.798Z,99.99
2016-09-19T06:00:25.763Z,99.99
2016-09-19T06:01:25.797Z,99.99
2016-09-19T06:02:25.810Z,99.99
2016-09-19T06:03:25.802Z,99.99
2016-09-19T06:04:25.806Z,99.99
2016-09-19T06:05:25.817Z,99.99
2016-09-19T06:06:25.816Z,99.99
2016-09-19T06:07:25.737Z,99.99
2016-09-19T06:08:25.809Z,99.99
2016-09-19T06:09:25.777Z,99.99
2016-09-19T06:10:25.831Z,99.99
2016-09-19T06:11:25.790Z,99.99
2016-09-19T06:12:25.840Z,99.99
2016-09-19T06:13:25.831Z,99.99
2016-09-19T06:14:25.885Z,99.99
2016-09-19T06:15:25.860Z,99.99
2016-09-19T06:16:25.794Z,99.99
2016-09-19T06:17:25.869Z,99.99
2016-09-19T06:18:25.809Z,99.99
2016-09-19T06:19:25.849Z,99.99
2016-09-19T06:20:25.857Z,99.99
2016-09-19T06:21:25.818Z,99.99
2016-09-19T06:22:25.829Z,99.99
2016-09-19T06:23:25.779Z,99.99
2016-09-19T06:24:25.882Z,99.99
2016-09-19T06:25:25.921Z,99.81
2016-09-19T06:26:25.802Z,98.38
2016-09-19T06:27:25.900Z,98.09
2016-09-19T06:28:25.906Z,96.42
2016-09-19T06:29:25.809Z,95.94
2016-09-19T06:30:25.872Z,95.17
2016-09-19T06:31:25.894Z,94.35
2016-09-19T06:32:25.882Z,93.98
2016-09-19T06:33:25.890Z,93.49
2016-09-19T06:34:25.913Z,93.59
2016-09-19T06:35:25.852Z,93.59
2016-09-19T06:36:25.905Z,94.12
2016-09-19T06:37:25.895Z,94.89
2016-09-19T06:38:25.915Z,94.5
2016-09-19T06:39:25.859Z,95.17
2016-09-19T06:40:25.919Z,95.07
2016-09-19T06:41:25.921Z,95.94
2016-09-19T06:42:25.847Z,95.36
2016-09-19T06:43:25.840Z,95.61
2016-09-19T06:44:25.866Z,96.37
2016-09-19T06:45:25.884Z,96.47
2016-09-19T06:46:25.971Z,96.75
2016-09-19T06:47:25.881Z,95.89
2016-09-19T06:48:25.927Z,95.03
2016-09-19T06:49:25.879Z,94.6
2016-09-19T06:50:25.896Z,94.98
2016-09-19T06:51:25.947Z,94.12
2016-09-19T06:52:25.920Z,93.74
2016-09-19T06:53:25.919Z,92.82
2016-09-19T06:54:25.960Z,92.25
2016-09-19T06:55:25.873Z,92.82
2016-09-19T06:56:25.953Z,94.12
2016-09-19T06:57:25.954Z,94.12
2016-09-19T06:58:25.974Z,93.64
2016-09-19T06:59:25.989Z,93.26
2016-09-19T07:00:25.974Z,92.78
2016-09-19T07:01:26.032Z,92.87
2016-09-19T07:02:25.929Z,92.97
2016-09-19T07:03:26.054Z,91.82
2016-09-19T07:04:26.020Z,90.05
2016-09-19T07:05:25.946Z,88.94
2016-09-19T07:06:25.991Z,88.27
2016-09-19T07:07:25.994Z,87.88
2016-09-19T07:08:25.991Z,87.16
2016-09-19T07:09:25.920Z,86.78
2016-09-19T07:10:25.961Z,86.68
2016-09-19T07:11:25.963Z,86.97
2016-09-19T07:12:25.959Z,87.88
2016-09-19T07:13:26.006Z,87.98
2016-09-19T07:14:25.963Z,87.31
2016-09-19T07:15:26.024Z,87.07
2016-09-19T07:16:26.016Z,86.49
2016-09-19T07:17:25.942Z,85.86
2016-09-19T07:18:25.950Z,86.15
2016-09-19T07:19:26.024Z,85.48
2016-09-19T07:20:25.966Z,85.1
2016-09-19T07:21:25.960Z,85
2016-09-19T07:22:26.014Z,84.61
2016-09-19T07:23:26.042Z,83.89
2016-09-19T07:24:25.981Z,83.8
2016-09-19T07:25:25.965Z,84.61
2016-09-19T07:26:26.058Z,84.33
2016-09-19T07:27:25.975Z,84.42
2016-09-19T07:28:25.982Z,84.61
2016-09-19T07:29:26.052Z,85.25
2016-09-19T07:30:25.999Z,84.67
2016-09-19T07:31:25.984Z,84.28
2016-09-19T07:32:25.998Z,83.81
2016-09-19T07:33:26.031Z,83.76
2016-09-19T07:34:26.264Z,83.33
2016-09-19T07:35:26.088Z,82.79
2016-09-19T07:36:26.014Z,81.84
2016-09-19T07:37:26.091Z,79.86
2016-09-19T07:38:26.004Z,79.22
2016-09-19T07:39:26.082Z,77.59
2016-09-19T07:40:26.010Z,77.4
2016-09-19T07:41:26.021Z,76.67
2016-09-19T07:42:26.100Z,77.06
2016-09-19T07:43:26.021Z,77.98
2016-09-19T07:44:26.061Z,80.15
2016-09-19T07:45:26.046Z,80.3
2016-09-19T07:46:26.108Z,79.57
2016-09-19T07:47:26.112Z,79.09
2016-09-19T07:48:26.154Z,78.99
2016-09-19T07:49:26.139Z,78.84
2016-09-19T07:50:26.128Z,78.08
2016-09-19T07:51:26.045Z,77.25
2016-09-19T07:52:26.092Z,75.56
2016-09-19T07:53:26.140Z,75.11
2016-09-19T07:54:26.135Z,74.34
2016-09-19T07:55:26.058Z,72.94
2016-09-19T07:56:26.142Z,73.71
2016-09-19T07:57:26.139Z,73.9
2016-09-19T07:58:26.064Z,73.42
2016-09-19T07:59:26.062Z,73.13
2016-09-19T08:00:26.165Z,72.55
2016-09-19T08:01:26.074Z,72.59
2016-09-19T08:02:26.113Z,73.03
2016-09-19T08:03:26.123Z,71.69
2016-09-19T08:04:26.170Z,71.43
2016-09-19T08:05:26.085Z,71.24
2016-09-19T08:06:26.085Z,72.94
2016-09-19T08:07:26.130Z,74.34
2016-09-19T08:08:26.166Z,75.37
2016-09-19T08:09:26.132Z,76.57
2016-09-19T08:10:26.111Z,76.57
2016-09-19T08:11:26.196Z,76.67
2016-09-19T08:12:26.149Z,75.37
2016-09-19T08:13:26.108Z,74.44
2016-09-19T08:14:26.278Z,72.88
2016-09-19T08:15:26.177Z,71.62
2016-09-19T08:16:26.144Z,70.98
2016-09-19T08:17:26.145Z,71.2
2016-09-19T08:18:26.176Z,70.28
2016-09-19T08:19:26.140Z,69.54
2016-09-19T08:20:26.168Z,69.19
2016-09-19T08:21:26.219Z,67.78
2016-09-19T08:22:26.179Z,67.58
2016-09-19T08:23:26.211Z,66.62
2016-09-19T08:24:26.145Z,66.27
2016-09-19T08:25:26.837Z,66.36
2016-09-19T08:26:26.176Z,67.14
2016-09-19T08:27:26.188Z,67.43
2016-09-19T08:28:26.193Z,66.66
2016-09-19T08:29:26.185Z,66.69
2016-09-19T08:30:26.202Z,65.62
2016-09-19T08:31:26.176Z,65.27
2016-09-19T08:32:26.159Z,65.72
2016-09-19T08:33:26.255Z,66.59
2016-09-19T08:34:26.246Z,67.88
2016-09-19T08:35:26.172Z,68.99
2016-09-19T08:36:26.215Z,69.54
2016-09-19T08:37:26.190Z,69.45
2016-09-19T08:38:26.255Z,69.67
2016-09-19T08:39:26.212Z,69.77
2016-09-19T08:40:26.288Z,68.96
2016-09-19T08:41:26.266Z,67.03
2016-09-19T08:42:26.302Z,64.79
2016-09-19T08:43:26.274Z,63.79
2016-09-19T08:44:26.247Z,63.5
2016-09-19T08:45:26.237Z,63.31
2016-09-19T08:46:26.290Z,63.21
2016-09-19T08:47:26.252Z,63.5
2016-09-19T08:48:26.296Z,62.73
2016-09-19T08:49:26.235Z,62.66
2016-09-19T08:50:26.222Z,62.34
2016-09-19T08:51:26.267Z,61.6
2016-09-19T08:52:26.310Z,61.15
2016-09-19T08:53:26.348Z,61.05
2016-09-19T08:54:26.315Z,61.8
2016-09-19T08:55:26.314Z,63.24
2016-09-19T08:56:26.285Z,64.43
2016-09-19T08:57:26.285Z,64.82
2016-09-19T08:58:26.244Z,65.37
2016-09-19T08:59:26.330Z,64.34
2016-09-19T09:00:26.245Z,65.78
2016-09-19T09:01:26.252Z,67
2016-09-19T09:02:26.337Z,69.89
2016-09-19T09:03:26.353Z,71.65
2016-09-19T09:04:26.347Z,71.55
2016-09-19T09:05:26.338Z,70.5
2016-09-19T09:06:26.268Z,69.82
2016-09-19T09:07:26.373Z,69.67
2016-09-19T09:09:26.304Z,66.01
2016-09-19T09:10:26.363Z,66.3
2016-09-19T09:11:26.279Z,65.81
2016-09-19T09:12:26.367Z,64.66
2016-09-19T09:13:26.379Z,65.24
2016-09-19T09:14:26.325Z,66.27
2016-09-19T09:15:26.321Z,68.03
2016-09-19T09:16:26.297Z,68.38
2016-09-19T09:17:26.378Z,68.76
2016-09-19T09:18:26.306Z,69.34
2016-09-19T09:19:26.402Z,69.34
2016-09-19T09:20:26.423Z,69.53
2016-09-19T09:21:26.382Z,68.9
2016-09-19T09:22:26.377Z,68.51
2016-09-19T09:23:26.312Z,68.44
2016-09-19T09:24:26.382Z,67.39
2016-09-19T09:25:26.398Z,67.13
2016-09-19T09:26:26.412Z,66.11
2016-09-19T09:27:26.475Z,64.02
2016-09-19T09:28:26.360Z,63.4
2016-09-19T09:29:26.368Z,62.15
2016-09-19T09:30:26.368Z,60.18
2016-09-19T09:31:26.489Z,59.92
2016-09-19T09:32:26.371Z,59.05
2016-09-19T09:33:26.397Z,59.38
2016-09-19T09:34:26.429Z,60.09
2016-09-19T09:35:26.366Z,60.09
2016-09-19T09:36:26.435Z,59.15
2016-09-19T09:37:26.445Z,57.66
2016-09-19T09:38:26.438Z,57.37
2016-09-19T09:39:26.437Z,57.08
2016-09-19T09:40:26.376Z,56.24
2016-09-19T09:41:26.408Z,56.56
2016-09-19T09:42:26.440Z,55.78
2016-09-19T09:43:26.404Z,56.07
2016-09-19T09:44:26.411Z,55.98
2016-09-19T09:45:26.461Z,57.23
2016-09-19T09:46:26.423Z,58.72
2016-09-19T09:47:26.380Z,59.38
2016-09-19T09:48:26.468Z,59.92
2016-09-19T09:49:26.421Z,60.02
2016-09-19T09:50:26.474Z,60.89
2016-09-19T09:51:26.463Z,60.67
2016-09-19T09:52:26.494Z,61.63
2016-09-19T09:53:26.481Z,63.6
2016-09-19T09:54:26.446Z,64.18
2016-09-19T09:55:26.497Z,64.37
2016-09-19T09:56:26.417Z,61.99
2016-09-19T09:57:26.499Z,60.73
2016-09-19T09:58:26.491Z,58.73
2016-09-19T09:59:26.502Z,57.56
2016-09-19T10:00:26.430Z,56.43
2016-09-19T10:01:26.443Z,56.16
2016-09-19T10:02:26.524Z,57.5
2016-09-19T10:03:26.464Z,58.57
2016-09-19T10:04:26.755Z,57.99
2016-09-19T10:05:26.861Z,57.28
2016-09-19T10:06:26.529Z,55.4
2016-09-19T10:07:26.530Z,55.2
2016-09-19T10:08:26.524Z,55.17
2016-09-19T10:09:26.525Z,55.98
2016-09-19T10:10:26.542Z,55.17
2016-09-19T10:11:26.532Z,53.58
2016-09-19T10:12:26.549Z,52.64
2016-09-19T10:13:26.550Z,52.37
2016-09-19T10:14:26.550Z,52.06
2016-09-19T10:15:26.576Z,51.21
2016-09-19T10:16:26.807Z,51.4
2016-09-19T10:17:26.517Z,51.62
2016-09-19T10:18:26.581Z,52.95
2016-09-19T10:19:26.750Z,53.43
2016-09-19T10:20:26.574Z,52.83
2016-09-19T10:21:26.509Z,52.28
2016-09-19T10:22:26.496Z,53.05
2016-09-19T10:23:26.536Z,55.13
2016-09-19T10:24:26.508Z,57.46
2016-09-19T10:25:26.586Z,59.09
2016-09-19T10:26:26.538Z,59.67
2016-09-19T10:27:26.596Z,60.83
2016-09-19T10:28:26.545Z,61.19
2016-09-19T10:29:26.516Z,61.47
2016-09-19T10:30:26.603Z,60.31
2016-09-19T10:31:26.574Z,59.67
2016-09-19T10:32:26.606Z,59.77
2016-09-19T10:33:26.603Z,61.67
2016-09-19T10:34:26.619Z,62.6
2016-09-19T10:35:26.673Z,62.96
2016-09-19T10:36:26.632Z,61.93
2016-09-19T10:37:26.615Z,61.28
2016-09-19T10:38:26.676Z,61.83
2016-09-19T10:39:26.620Z,61.83
2016-09-19T10:40:26.622Z,61.25
2016-09-19T10:41:26.625Z,60.71
2016-09-19T10:42:26.635Z,59.02
2016-09-19T10:43:26.592Z,57.95
2016-09-19T10:44:26.563Z,56.62
2016-09-19T10:45:26.634Z,56
2016-09-19T10:46:26.687Z,56.36
2016-09-19T10:47:26.653Z,57.37
2016-09-19T10:48:26.691Z,58.31
2016-09-19T10:49:26.581Z,58.21
2016-09-19T10:50:26.683Z,58.72
2016-09-19T10:51:26.661Z,57.92
2016-09-19T10:52:26.660Z,58.98
2016-09-19T10:53:26.665Z,58.47
2016-09-19T10:54:26.589Z,60.24
2016-09-19T10:55:26.619Z,63.06
2016-09-19T10:56:26.663Z,63.5
2016-09-19T10:57:26.668Z,62.7
2016-09-19T10:58:26.649Z,60.61
2016-09-19T10:59:26.646Z,58.57
2016-09-19T11:00:26.642Z,56.24
2016-09-19T11:01:26.674Z,54.94
2016-09-19T11:02:26.888Z,54.11
2016-09-19T11:03:26.713Z,56.32
2016-09-19T11:04:26.899Z,57.28
2016-09-19T11:05:26.696Z,55.76
2016-09-19T11:06:26.622Z,55
2016-09-19T11:07:26.706Z,55
2016-09-19T11:08:26.710Z,54.62
2016-09-19T11:09:26.707Z,56.29
2016-09-19T11:10:26.688Z,56.52
2016-09-19T11:11:26.635Z,55.76
2016-09-19T11:12:26.729Z,54.45
2016-09-19T11:13:26.988Z,53.63
2016-09-19T11:14:26.741Z,56.56
2016-09-19T11:15:26.702Z,57.46
2016-09-19T11:16:26.739Z,57.08
2016-09-19T11:17:26.659Z,55.94
2016-09-19T11:19:26.770Z,53.7
2016-09-19T11:20:26.739Z,53.05
2016-09-19T11:21:26.746Z,53.47
2016-09-19T11:22:26.688Z,54.74
2016-09-19T11:23:26.753Z,56.07
2016-09-19T11:24:26.754Z,57.08
2016-09-19T11:25:26.722Z,57.66
2016-09-19T11:26:26.774Z,57.86
2016-09-19T11:27:26.852Z,56.62
2016-09-19T11:28:26.696Z,55.85
2016-09-19T11:29:26.771Z,55.1
2016-09-19T11:30:26.689Z,54.58
2016-09-19T11:31:26.848Z,54.38
2016-09-19T11:32:26.698Z,55.04
2016-09-19T11:33:26.792Z,55.04
2016-09-19T11:34:26.816Z,54.91
2016-09-19T11:35:26.772Z,53.97
2016-09-19T11:36:26.810Z,53.41
2016-09-19T11:37:26.818Z,53.53
2016-09-19T11:38:27.182Z,54.11
2016-09-19T11:39:26.734Z,54.58
2016-09-19T11:40:26.754Z,55.04
2016-09-19T11:41:26.729Z,55.85
2016-09-19T11:42:26.763Z,56.07
2016-09-19T11:43:26.890Z,56.04
2016-09-19T11:44:26.816Z,56.62
2016-09-19T11:45:26.744Z,57.46
2016-09-19T11:46:26.814Z,58.6
2016-09-19T11:47:26.780Z,58.89
2016-09-19T11:48:26.847Z,58.93
2016-09-19T11:49:26.757Z,59.25
2016-09-19T11:50:26.800Z,59.99
2016-09-19T11:51:26.841Z,59.51
2016-09-19T11:52:26.761Z,59.51
2016-09-19T11:53:26.839Z,59.22
2016-09-19T11:54:26.862Z,59.41
2016-09-19T11:55:26.854Z,59.77
2016-09-19T11:56:26.844Z,60.25
2016-09-19T11:57:26.775Z,60.83
2016-09-19T11:58:26.788Z,60.83
2016-09-19T11:59:26.860Z,60.16
2016-09-19T12:00:26.797Z,59.7
2016-09-19T12:01:26.845Z,59.7
2016-09-19T12:02:26.858Z,59.31
2016-09-19T12:03:26.801Z,60.09
2016-09-19T12:04:26.877Z,59.31
2016-09-19T12:05:26.887Z,59.05
2016-09-19T12:06:26.933Z,59.89
2016-09-19T12:07:26.952Z,59.96
2016-09-19T12:08:26.888Z,61.57
2016-09-19T12:09:26.907Z,62.57
2016-09-19T12:10:26.982Z,63.18
2016-09-19T12:11:26.901Z,62.41
2016-09-19T12:12:26.898Z,62.22
2016-09-19T12:13:26.895Z,61.38
2016-09-19T12:14:26.914Z,61.51
2016-09-19T12:15:26.904Z,62.25
2016-09-19T12:16:26.843Z,63.67
2016-09-19T12:17:26.917Z,63.15
2016-09-19T12:18:26.880Z,62.51
2016-09-19T12:19:26.843Z,62.25
2016-09-19T12:20:26.849Z,61.51
2016-09-19T12:21:26.842Z,61.77
2016-09-19T12:22:26.877Z,60.73
2016-09-19T12:23:26.860Z,59.31
2016-09-19T12:24:26.861Z,59.15
2016-09-19T12:25:26.866Z,59.67
2016-09-19T12:26:26.915Z,59.38
2016-09-19T12:27:26.904Z,59.34
2016-09-19T12:28:26.865Z,58.7
2016-09-19T12:29:26.907Z,57.86
2016-09-19T12:30:26.882Z,58.7
2016-09-19T12:31:26.915Z,59.15
2016-09-19T12:32:26.951Z,59.05
2016-09-19T12:33:26.963Z,59.8
2016-09-19T12:34:26.965Z,60.41
2016-09-19T12:35:27.675Z,62.25
2016-09-19T12:36:26.919Z,62.22
2016-09-19T12:37:26.974Z,60.73
2016-09-19T12:38:26.902Z,59.31
2016-09-19T12:39:26.992Z,57.18
2016-09-19T12:40:26.975Z,56.43
2016-09-19T12:41:26.977Z,55.85
2016-09-19T12:42:26.928Z,56.02
2016-09-19T12:43:27.024Z,56.02
2016-09-19T12:44:26.916Z,55.94
2016-09-19T12:45:26.927Z,55.76
2016-09-19T12:46:26.956Z,55.46
2016-09-19T12:47:26.997Z,54.98
2016-09-19T12:48:26.974Z,55
2016-09-19T12:49:27.012Z,55.1
2016-09-19T12:50:26.934Z,55.94
2016-09-19T12:51:28.358Z,57.18
2016-09-19T12:52:27.014Z,57.18
2016-09-19T12:53:27.048Z,57.82
2016-09-19T12:54:27.057Z,58.8
2016-09-19T12:55:26.940Z,59.09
2016-09-19T12:56:27.023Z,59.67